sensor_id;sensor_type;location;lat;lon;timestamp;P1;durP1;ratioP1;P2;durP2;ratioP2
76236;SDS011;65038;53.200;6.530;2023-02-28T00:01:01;11.60;;;3.33;;
76236;SDS011;65038;53.200;6.530;2023-02-28T00:03:27;9.23;;;3.00;;
76236;SDS011;65038;53.200;6.530;2023-02-28T00:05:53;9.85;;;2.97;;
76236;SDS011;65038;53.200;6.530;2023-02-28T00:08:19;7.38;;;3.03;;
76236;SDS011;65038;53.200;6.530;2023-02-28T00:10:45;8.95;;;2.97;;
76236;SDS011;65038;53.200;6.530;2023-02-28T00:13:11;6.72;;;2.75;;
76236;SDS011;65038;53.200;6.530;2023-02-28T00:15:38;7.63;;;2.70;;
76236;SDS011;65038;53.200;6.530;2023-02-28T00:18:04;9.35;;;2.72;;
76236;SDS011;65038;53.200;6.530;2023-02-28T00:20:30;8.95;;;2.85;;
76236;SDS011;65038;53.200;6.530;2023-02-28T00:22:56;11.57;;;2.60;;
76236;SDS011;65038;53.200;6.530;2023-02-28T00:25:23;9.65;;;2.65;;
76236;SDS011;65038;53.200;6.530;2023-02-28T00:27:49;10.30;;;2.92;;
76236;SDS011;65038;53.200;6.530;2023-02-28T00:30:17;7.97;;;2.50;;
76236;SDS011;65038;53.200;6.530;2023-02-28T00:32:44;9.90;;;2.95;;
76236;SDS011;65038;53.200;6.530;2023-02-28T00:35:10;10.20;;;3.05;;
76236;SDS011;65038;53.200;6.530;2023-02-28T00:37:37;9.02;;;2.78;;
76236;SDS011;65038;53.200;6.530;2023-02-28T00:40:03;11.93;;;3.15;;
76236;SDS011;65038;53.200;6.530;2023-02-28T00:42:30;10.23;;;2.92;;
76236;SDS011;65038;53.200;6.530;2023-02-28T00:44:56;4.82;;;1.80;;
76236;SDS011;65038;53.200;6.530;2023-02-28T00:47:22;8.05;;;2.88;;
76236;SDS011;65038;53.200;6.530;2023-02-28T00:49:48;10.45;;;3.53;;
76236;SDS011;65038;53.200;6.530;2023-02-28T00:52:14;11.70;;;3.58;;
76236;SDS011;65038;53.200;6.530;2023-02-28T00:54:40;12.85;;;3.22;;
76236;SDS011;65038;53.200;6.530;2023-02-28T00:57:06;10.50;;;3.22;;
76236;SDS011;65038;53.200;6.530;2023-02-28T00:59:32;9.18;;;3.47;;
76236;SDS011;65038;53.200;6.530;2023-02-28T01:01:58;8.82;;;2.97;;
76236;SDS011;65038;53.200;6.530;2023-02-28T01:04:25;6.78;;;2.67;;
76236;SDS011;65038;53.200;6.530;2023-02-28T01:06:51;8.30;;;2.92;;
76236;SDS011;65038;53.200;6.530;2023-02-28T01:09:17;8.82;;;3.08;;
76236;SDS011;65038;53.200;6.530;2023-02-28T01:11:43;8.02;;;3.13;;
76236;SDS011;65038;53.200;6.530;2023-02-28T01:14:11;9.32;;;3.03;;
76236;SDS011;65038;53.200;6.530;2023-02-28T01:16:37;16.25;;;3.30;;
76236;SDS011;65038;53.200;6.530;2023-02-28T01:19:03;8.75;;;3.22;;
76236;SDS011;65038;53.200;6.530;2023-02-28T01:21:29;9.85;;;3.00;;
76236;SDS011;65038;53.200;6.530;2023-02-28T01:23:56;8.93;;;2.90;;
76236;SDS011;65038;53.200;6.530;2023-02-28T01:26:22;7.88;;;3.15;;
76236;SDS011;65038;53.200;6.530;2023-02-28T01:28:49;11.57;;;3.00;;
76236;SDS011;65038;53.200;6.530;2023-02-28T01:31:15;9.13;;;2.75;;
76236;SDS011;65038;53.200;6.530;2023-02-28T01:33:43;10.43;;;2.70;;
76236;SDS011;65038;53.200;6.530;2023-02-28T01:36:10;8.38;;;2.95;;
76236;SDS011;65038;53.200;6.530;2023-02-28T01:38:36;8.52;;;2.90;;
76236;SDS011;65038;53.200;6.530;2023-02-28T01:41:02;8.63;;;2.97;;
76236;SDS011;65038;53.200;6.530;2023-02-28T01:43:35;7.80;;;2.60;;
76236;SDS011;65038;53.200;6.530;2023-02-28T01:46:14;4.47;;;2.05;;
76236;SDS011;65038;53.200;6.530;2023-02-28T01:48:45;8.82;;;3.13;;
76236;SDS011;65038;53.200;6.530;2023-02-28T01:51:16;9.27;;;2.92;;
76236;SDS011;65038;53.200;6.530;2023-02-28T01:53:45;8.45;;;2.78;;
76236;SDS011;65038;53.200;6.530;2023-02-28T01:56:13;4.57;;;1.60;;
76236;SDS011;65038;53.200;6.530;2023-02-28T01:58:46;10.02;;;3.15;;
76236;SDS011;65038;53.200;6.530;2023-02-28T02:01:13;10.70;;;3.13;;
76236;SDS011;65038;53.200;6.530;2023-02-28T02:03:47;6.15;;;2.72;;
76236;SDS011;65038;53.200;6.530;2023-02-28T02:06:13;5.95;;;1.52;;
76236;SDS011;65038;53.200;6.530;2023-02-28T02:08:39;10.50;;;3.08;;
76236;SDS011;65038;53.200;6.530;2023-02-28T02:11:05;8.00;;;2.60;;
76236;SDS011;65038;53.200;6.530;2023-02-28T02:13:50;9.10;;;2.80;;
76236;SDS011;65038;53.200;6.530;2023-02-28T02:18:47;7.72;;;2.60;;
76236;SDS011;65038;53.200;6.530;2023-02-28T02:36:51;7.30;;;2.72;;
76236;SDS011;65038;53.200;6.530;2023-02-28T02:39:25;8.82;;;3.13;;
76236;SDS011;65038;53.200;6.530;2023-02-28T02:41:54;8.05;;;2.92;;
76236;SDS011;65038;53.200;6.530;2023-02-28T02:44:27;8.10;;;2.95;;
76236;SDS011;65038;53.200;6.530;2023-02-28T02:46:55;11.43;;;3.08;;
76236;SDS011;65038;53.200;6.530;2023-02-28T02:49:24;6.80;;;3.13;;
76236;SDS011;65038;53.200;6.530;2023-02-28T02:51:51;7.18;;;3.05;;
76236;SDS011;65038;53.200;6.530;2023-02-28T02:54:23;8.10;;;3.10;;
76236;SDS011;65038;53.200;6.530;2023-02-28T02:56:53;8.38;;;3.30;;
76236;SDS011;65038;53.200;6.530;2023-02-28T02:59:21;10.43;;;3.90;;
76236;SDS011;65038;53.200;6.530;2023-02-28T03:01:50;9.07;;;3.80;;
76236;SDS011;65038;53.200;6.530;2023-02-28T03:04:18;9.02;;;3.80;;
76236;SDS011;65038;53.200;6.530;2023-02-28T03:06:44;8.73;;;3.72;;
76236;SDS011;65038;53.200;6.530;2023-02-28T03:09:10;9.60;;;3.30;;
76236;SDS011;65038;53.200;6.530;2023-02-28T03:11:37;8.32;;;3.70;;
76236;SDS011;65038;53.200;6.530;2023-02-28T03:16:57;8.05;;;3.65;;
76236;SDS011;65038;53.200;6.530;2023-02-28T03:27:11;11.77;;;4.20;;
76236;SDS011;65038;53.200;6.530;2023-02-28T03:29:44;13.25;;;5.03;;
76236;SDS011;65038;53.200;6.530;2023-02-28T03:32:17;12.93;;;5.65;;
76236;SDS011;65038;53.200;6.530;2023-02-28T03:34:48;13.50;;;5.55;;
76236;SDS011;65038;53.200;6.530;2023-02-28T03:37:19;12.77;;;4.90;;
76236;SDS011;65038;53.200;6.530;2023-02-28T03:39:56;12.00;;;6.07;;
76236;SDS011;65038;53.200;6.530;2023-02-28T03:42:24;11.27;;;6.07;;
76236;SDS011;65038;53.200;6.530;2023-02-28T03:44:54;12.93;;;6.55;;
76236;SDS011;65038;53.200;6.530;2023-02-28T03:47:24;11.38;;;6.50;;
76236;SDS011;65038;53.200;6.530;2023-02-28T03:52:18;14.52;;;8.52;;
76236;SDS011;65038;53.200;6.530;2023-02-28T03:54:45;14.88;;;7.78;;
76236;SDS011;65038;53.200;6.530;2023-02-28T03:57:57;14.10;;;7.72;;
76236;SDS011;65038;53.200;6.530;2023-02-28T04:00:10;14.52;;;7.20;;
76236;SDS011;65038;53.200;6.530;2023-02-28T04:02:38;12.77;;;8.10;;
76236;SDS011;65038;53.200;6.530;2023-02-28T04:05:04;15.98;;;7.97;;
76236;SDS011;65038;53.200;6.530;2023-02-28T04:07:31;17.08;;;8.30;;
76236;SDS011;65038;53.200;6.530;2023-02-28T04:09:57;16.65;;;7.55;;
76236;SDS011;65038;53.200;6.530;2023-02-28T04:12:24;14.35;;;8.15;;
76236;SDS011;65038;53.200;6.530;2023-02-28T04:14:50;13.77;;;8.05;;
76236;SDS011;65038;53.200;6.530;2023-02-28T04:17:16;16.13;;;8.50;;
76236;SDS011;65038;53.200;6.530;2023-02-28T04:19:43;13.80;;;7.80;;
76236;SDS011;65038;53.200;6.530;2023-02-28T04:22:09;11.77;;;7.55;;
76236;SDS011;65038;53.200;6.530;2023-02-28T04:24:35;14.10;;;8.20;;
76236;SDS011;65038;53.200;6.530;2023-02-28T04:27:02;14.43;;;7.95;;
76236;SDS011;65038;53.200;6.530;2023-02-28T04:29:29;15.48;;;8.50;;
76236;SDS011;65038;53.200;6.530;2023-02-28T04:31:56;6.50;;;2.85;;
76236;SDS011;65038;53.200;6.530;2023-02-28T04:34:23;13.82;;;7.47;;
76236;SDS011;65038;53.200;6.530;2023-02-28T04:36:50;11.27;;;7.20;;
76236;SDS011;65038;53.200;6.530;2023-02-28T04:39:18;10.98;;;6.95;;
76236;SDS011;65038;53.200;6.530;2023-02-28T04:41:44;11.70;;;7.03;;
76236;SDS011;65038;53.200;6.530;2023-02-28T04:44:11;6.47;;;2.63;;
76236;SDS011;65038;53.200;6.530;2023-02-28T04:46:37;6.57;;;2.92;;
76236;SDS011;65038;53.200;6.530;2023-02-28T04:49:03;9.20;;;6.00;;
76236;SDS011;65038;53.200;6.530;2023-02-28T04:51:29;10.70;;;6.38;;
76236;SDS011;65038;53.200;6.530;2023-02-28T04:53:55;9.05;;;5.57;;
76236;SDS011;65038;53.200;6.530;2023-02-28T04:56:21;7.78;;;5.22;;
76236;SDS011;65038;53.200;6.530;2023-02-28T04:58:47;10.18;;;6.22;;
76236;SDS011;65038;53.200;6.530;2023-02-28T05:03:45;9.85;;;6.22;;
76236;SDS011;65038;53.200;6.530;2023-02-28T05:06:11;11.02;;;6.47;;
76236;SDS011;65038;53.200;6.530;2023-02-28T05:08:38;11.75;;;6.53;;
76236;SDS011;65038;53.200;6.530;2023-02-28T05:11:05;13.13;;;7.30;;
76236;SDS011;65038;53.200;6.530;2023-02-28T05:13:31;12.85;;;7.05;;
76236;SDS011;65038;53.200;6.530;2023-02-28T05:15:57;14.05;;;7.72;;
76236;SDS011;65038;53.200;6.530;2023-02-28T05:18:23;14.25;;;7.53;;
76236;SDS011;65038;53.200;6.530;2023-02-28T05:20:50;13.05;;;7.40;;
76236;SDS011;65038;53.200;6.530;2023-02-28T05:23:16;14.65;;;7.72;;
76236;SDS011;65038;53.200;6.530;2023-02-28T05:25:43;12.70;;;7.43;;
76236;SDS011;65038;53.200;6.530;2023-02-28T05:28:09;15.10;;;8.25;;
76236;SDS011;65038;53.200;6.530;2023-02-28T05:30:35;14.85;;;8.10;;
76236;SDS011;65038;53.200;6.530;2023-02-28T05:33:01;14.77;;;8.02;;
76236;SDS011;65038;53.200;6.530;2023-02-28T05:35:27;16.35;;;7.85;;
76236;SDS011;65038;53.200;6.530;2023-02-28T05:37:53;14.73;;;8.05;;
76236;SDS011;65038;53.200;6.530;2023-02-28T05:40:19;14.55;;;7.70;;
76236;SDS011;65038;53.200;6.530;2023-02-28T05:42:45;12.45;;;7.13;;
76236;SDS011;65038;53.200;6.530;2023-02-28T05:45:11;13.55;;;8.15;;
76236;SDS011;65038;53.200;6.530;2023-02-28T05:47:38;16.35;;;8.38;;
76236;SDS011;65038;53.200;6.530;2023-02-28T05:50:04;16.08;;;8.32;;
76236;SDS011;65038;53.200;6.530;2023-02-28T05:52:31;4.80;;;2.42;;
76236;SDS011;65038;53.200;6.530;2023-02-28T05:54:57;14.27;;;8.30;;
76236;SDS011;65038;53.200;6.530;2023-02-28T05:57:23;15.38;;;9.02;;
76236;SDS011;65038;53.200;6.530;2023-02-28T05:59:49;7.32;;;3.42;;
76236;SDS011;65038;53.200;6.530;2023-02-28T06:02:16;12.77;;;7.97;;
76236;SDS011;65038;53.200;6.530;2023-02-28T06:04:42;15.20;;;9.15;;
76236;SDS011;65038;53.200;6.530;2023-02-28T06:07:09;13.73;;;8.95;;
76236;SDS011;65038;53.200;6.530;2023-02-28T06:09:35;7.80;;;3.28;;
76236;SDS011;65038;53.200;6.530;2023-02-28T06:12:02;13.55;;;8.27;;
76236;SDS011;65038;53.200;6.530;2023-02-28T06:14:30;14.65;;;8.70;;
76236;SDS011;65038;53.200;6.530;2023-02-28T06:16:56;16.58;;;9.52;;
76236;SDS011;65038;53.200;6.530;2023-02-28T06:19:23;13.85;;;8.38;;
76236;SDS011;65038;53.200;6.530;2023-02-28T06:21:50;6.97;;;3.03;;
76236;SDS011;65038;53.200;6.530;2023-02-28T06:24:17;15.07;;;8.55;;
76236;SDS011;65038;53.200;6.530;2023-02-28T06:26:44;13.73;;;8.27;;
76236;SDS011;65038;53.200;6.530;2023-02-28T06:29:10;7.80;;;3.03;;
76236;SDS011;65038;53.200;6.530;2023-02-28T06:31:36;16.02;;;8.70;;
76236;SDS011;65038;53.200;6.530;2023-02-28T06:34:03;15.23;;;9.40;;
76236;SDS011;65038;53.200;6.530;2023-02-28T06:36:29;16.65;;;9.88;;
76236;SDS011;65038;53.200;6.530;2023-02-28T06:38:56;8.63;;;3.08;;
76236;SDS011;65038;53.200;6.530;2023-02-28T06:41:23;15.40;;;8.38;;
76236;SDS011;65038;53.200;6.530;2023-02-28T06:43:49;15.88;;;9.18;;
76236;SDS011;65038;53.200;6.530;2023-02-28T06:46:15;17.13;;;9.80;;
76236;SDS011;65038;53.200;6.530;2023-02-28T06:48:42;17.08;;;10.13;;
76236;SDS011;65038;53.200;6.530;2023-02-28T06:51:17;16.40;;;9.80;;
76236;SDS011;65038;53.200;6.530;2023-02-28T06:53:45;15.95;;;9.60;;
76236;SDS011;65038;53.200;6.530;2023-02-28T06:56:15;7.28;;;3.25;;
76236;SDS011;65038;53.200;6.530;2023-02-28T06:58:41;8.02;;;3.50;;
76236;SDS011;65038;53.200;6.530;2023-02-28T07:01:07;18.90;;;10.27;;
76236;SDS011;65038;53.200;6.530;2023-02-28T07:03:36;16.10;;;9.52;;
76236;SDS011;65038;53.200;6.530;2023-02-28T07:06:04;11.52;;;4.20;;
76236;SDS011;65038;53.200;6.530;2023-02-28T07:08:30;20.50;;;11.38;;
76236;SDS011;65038;53.200;6.530;2023-02-28T07:10:56;11.35;;;4.47;;
76236;SDS011;65038;53.200;6.530;2023-02-28T07:13:23;10.80;;;4.57;;
76236;SDS011;65038;53.200;6.530;2023-02-28T07:15:59;18.77;;;10.85;;
76236;SDS011;65038;53.200;6.530;2023-02-28T07:18:26;19.48;;;11.07;;
76236;SDS011;65038;53.200;6.530;2023-02-28T07:20:52;18.15;;;10.50;;
76236;SDS011;65038;53.200;6.530;2023-02-28T07:23:19;11.90;;;5.70;;
76236;SDS011;65038;53.200;6.530;2023-02-28T07:25:45;10.50;;;4.63;;
76236;SDS011;65038;53.200;6.530;2023-02-28T07:28:11;18.27;;;11.00;;
76236;SDS011;65038;53.200;6.530;2023-02-28T07:30:38;20.38;;;11.05;;
76236;SDS011;65038;53.200;6.530;2023-02-28T07:33:04;19.15;;;11.07;;
76236;SDS011;65038;53.200;6.530;2023-02-28T07:35:30;10.13;;;3.92;;
76236;SDS011;65038;53.200;6.530;2023-02-28T07:37:59;18.88;;;11.00;;
76236;SDS011;65038;53.200;6.530;2023-02-28T07:40:25;10.85;;;4.32;;
76236;SDS011;65038;53.200;6.530;2023-02-28T07:42:52;10.70;;;4.15;;
76236;SDS011;65038;53.200;6.530;2023-02-28T07:45:18;17.10;;;10.95;;
76236;SDS011;65038;53.200;6.530;2023-02-28T07:47:44;17.20;;;10.55;;
76236;SDS011;65038;53.200;6.530;2023-02-28T07:50:11;16.98;;;10.55;;
76236;SDS011;65038;53.200;6.530;2023-02-28T07:52:38;8.32;;;3.60;;
76236;SDS011;65038;53.200;6.530;2023-02-28T07:55:05;16.13;;;10.05;;
76236;SDS011;65038;53.200;6.530;2023-02-28T07:57:31;17.95;;;10.32;;
76236;SDS011;65038;53.200;6.530;2023-02-28T07:59:57;17.75;;;10.38;;
76236;SDS011;65038;53.200;6.530;2023-02-28T08:02:23;16.90;;;9.68;;
76236;SDS011;65038;53.200;6.530;2023-02-28T08:04:49;14.68;;;9.18;;
76236;SDS011;65038;53.200;6.530;2023-02-28T08:07:15;15.95;;;9.88;;
76236;SDS011;65038;53.200;6.530;2023-02-28T08:09:42;16.27;;;9.48;;
76236;SDS011;65038;53.200;6.530;2023-02-28T08:12:09;19.15;;;10.57;;
76236;SDS011;65038;53.200;6.530;2023-02-28T08:14:35;16.42;;;10.05;;
76236;SDS011;65038;53.200;6.530;2023-02-28T08:17:01;15.68;;;10.05;;
76236;SDS011;65038;53.200;6.530;2023-02-28T08:19:28;18.60;;;10.38;;
76236;SDS011;65038;53.200;6.530;2023-02-28T08:21:54;17.92;;;9.95;;
76236;SDS011;65038;53.200;6.530;2023-02-28T08:24:20;17.10;;;9.35;;
76236;SDS011;65038;53.200;6.530;2023-02-28T08:26:46;9.98;;;4.57;;
76236;SDS011;65038;53.200;6.530;2023-02-28T08:29:12;16.83;;;9.50;;
76236;SDS011;65038;53.200;6.530;2023-02-28T08:31:38;17.60;;;9.73;;
76236;SDS011;65038;53.200;6.530;2023-02-28T08:34:07;15.80;;;9.77;;
76236;SDS011;65038;53.200;6.530;2023-02-28T08:36:34;14.73;;;9.55;;
76236;SDS011;65038;53.200;6.530;2023-02-28T08:39:00;17.35;;;10.07;;
76236;SDS011;65038;53.200;6.530;2023-02-28T08:41:26;14.43;;;9.65;;
76236;SDS011;65038;53.200;6.530;2023-02-28T08:43:52;10.13;;;4.28;;
76236;SDS011;65038;53.200;6.530;2023-02-28T08:46:18;16.45;;;9.55;;
76236;SDS011;65038;53.200;6.530;2023-02-28T08:48:44;15.57;;;9.57;;
76236;SDS011;65038;53.200;6.530;2023-02-28T08:51:12;18.73;;;9.40;;
76236;SDS011;65038;53.200;6.530;2023-02-28T08:53:39;15.50;;;9.40;;
76236;SDS011;65038;53.200;6.530;2023-02-28T08:58:31;15.60;;;10.02;;
76236;SDS011;65038;53.200;6.530;2023-02-28T09:00:58;16.70;;;10.05;;
76236;SDS011;65038;53.200;6.530;2023-02-28T09:03:24;14.55;;;9.50;;
76236;SDS011;65038;53.200;6.530;2023-02-28T09:05:56;14.25;;;9.43;;
76236;SDS011;65038;53.200;6.530;2023-02-28T09:08:23;17.55;;;9.18;;
76236;SDS011;65038;53.200;6.530;2023-02-28T09:10:49;15.43;;;9.10;;
76236;SDS011;65038;53.200;6.530;2023-02-28T09:13:15;14.15;;;9.18;;
76236;SDS011;65038;53.200;6.530;2023-02-28T09:15:41;14.82;;;9.20;;
76236;SDS011;65038;53.200;6.530;2023-02-28T09:18:07;15.27;;;9.63;;
76236;SDS011;65038;53.200;6.530;2023-02-28T09:20:33;14.52;;;9.30;;
76236;SDS011;65038;53.200;6.530;2023-02-28T09:22:59;14.65;;;9.55;;
76236;SDS011;65038;53.200;6.530;2023-02-28T09:25:25;13.35;;;8.68;;
76236;SDS011;65038;53.200;6.530;2023-02-28T09:27:51;13.25;;;8.60;;
76236;SDS011;65038;53.200;6.530;2023-02-28T09:30:17;12.23;;;8.40;;
76236;SDS011;65038;53.200;6.530;2023-02-28T09:32:43;14.77;;;8.85;;
76236;SDS011;65038;53.200;6.530;2023-02-28T09:35:17;13.63;;;9.30;;
76236;SDS011;65038;53.200;6.530;2023-02-28T09:37:42;14.70;;;8.95;;
76236;SDS011;65038;53.200;6.530;2023-02-28T09:40:09;13.95;;;9.20;;
76236;SDS011;65038;53.200;6.530;2023-02-28T09:42:36;14.38;;;8.55;;
76236;SDS011;65038;53.200;6.530;2023-02-28T09:45:02;15.27;;;8.95;;
76236;SDS011;65038;53.200;6.530;2023-02-28T09:47:34;14.30;;;9.02;;
76236;SDS011;65038;53.200;6.530;2023-02-28T09:57:41;10.60;;;7.05;;
76236;SDS011;65038;53.200;6.530;2023-02-28T10:02:48;14.10;;;7.72;;
76236;SDS011;65038;53.200;6.530;2023-02-28T10:05:19;10.07;;;6.50;;
76236;SDS011;65038;53.200;6.530;2023-02-28T10:07:50;10.02;;;6.78;;
76236;SDS011;65038;53.200;6.530;2023-02-28T10:10:23;9.82;;;6.57;;
76236;SDS011;65038;53.200;6.530;2023-02-28T10:12:51;9.23;;;6.03;;
76236;SDS011;65038;53.200;6.530;2023-02-28T10:15:18;8.52;;;5.70;;
76236;SDS011;65038;53.200;6.530;2023-02-28T10:17:45;9.93;;;5.70;;
76236;SDS011;65038;53.200;6.530;2023-02-28T10:20:20;10.20;;;5.68;;
76236;SDS011;65038;53.200;6.530;2023-02-28T10:22:57;8.90;;;5.75;;
76236;SDS011;65038;53.200;6.530;2023-02-28T10:25:26;8.90;;;5.47;;
76236;SDS011;65038;53.200;6.530;2023-02-28T10:28:07;8.38;;;5.00;;
76236;SDS011;65038;53.200;6.530;2023-02-28T10:30:34;9.50;;;5.47;;
76236;SDS011;65038;53.200;6.530;2023-02-28T10:33:00;10.43;;;5.43;;
76236;SDS011;65038;53.200;6.530;2023-02-28T10:35:26;9.50;;;5.32;;
76236;SDS011;65038;53.200;6.530;2023-02-28T10:37:53;8.50;;;5.45;;
76236;SDS011;65038;53.200;6.530;2023-02-28T10:42:56;10.27;;;5.85;;
76236;SDS011;65038;53.200;6.530;2023-02-28T10:45:22;8.00;;;4.70;;
76236;SDS011;65038;53.200;6.530;2023-02-28T10:47:51;8.60;;;4.90;;
76236;SDS011;65038;53.200;6.530;2023-02-28T10:53:49;7.88;;;4.80;;
76236;SDS011;65038;53.200;6.530;2023-02-28T10:58:28;6.78;;;4.40;;
76236;SDS011;65038;53.200;6.530;2023-02-28T11:00:55;6.22;;;3.97;;
76236;SDS011;65038;53.200;6.530;2023-02-28T11:03:34;8.23;;;4.28;;
76236;SDS011;65038;53.200;6.530;2023-02-28T11:06:33;6.82;;;4.00;;
76236;SDS011;65038;53.200;6.530;2023-02-28T11:08:53;6.75;;;3.85;;
76236;SDS011;65038;53.200;6.530;2023-02-28T11:11:20;7.80;;;4.00;;
76236;SDS011;65038;53.200;6.530;2023-02-28T11:13:47;7.80;;;4.35;;
76236;SDS011;65038;53.200;6.530;2023-02-28T11:16:14;7.13;;;4.07;;
76236;SDS011;65038;53.200;6.530;2023-02-28T11:18:42;6.97;;;4.22;;
76236;SDS011;65038;53.200;6.530;2023-02-28T11:21:10;6.68;;;3.85;;
76236;SDS011;65038;53.200;6.530;2023-02-28T11:23:41;5.22;;;3.30;;
76236;SDS011;65038;53.200;6.530;2023-02-28T11:26:08;7.82;;;3.60;;
76236;SDS011;65038;53.200;6.530;2023-02-28T11:28:37;6.53;;;3.45;;
76236;SDS011;65038;53.200;6.530;2023-02-28T11:31:05;5.45;;;3.28;;
76236;SDS011;65038;53.200;6.530;2023-02-28T11:36:02;6.30;;;3.42;;
76236;SDS011;65038;53.200;6.530;2023-02-28T11:38:28;7.47;;;4.07;;
76236;SDS011;65038;53.200;6.530;2023-02-28T11:51:18;6.40;;;3.50;;
76236;SDS011;65038;53.200;6.530;2023-02-28T11:53:50;7.00;;;3.65;;
76236;SDS011;65038;53.200;6.530;2023-02-28T11:56:21;7.15;;;3.38;;
76236;SDS011;65038;53.200;6.530;2023-02-28T11:59:29;6.90;;;3.80;;
76236;SDS011;65038;53.200;6.530;2023-02-28T12:02:05;7.18;;;3.67;;
76236;SDS011;65038;53.200;6.530;2023-02-28T12:07:03;5.13;;;2.97;;
76236;SDS011;65038;53.200;6.530;2023-02-28T12:12:10;6.75;;;3.50;;
76236;SDS011;65038;53.200;6.530;2023-02-28T12:15:03;6.50;;;3.80;;
76236;SDS011;65038;53.200;6.530;2023-02-28T12:19:55;6.93;;;3.00;;
76236;SDS011;65038;53.200;6.530;2023-02-28T12:22:46;5.60;;;3.30;;
76236;SDS011;65038;53.200;6.530;2023-02-28T12:27:40;8.75;;;4.10;;
76236;SDS011;65038;53.200;6.530;2023-02-28T12:30:15;6.25;;;3.38;;
76236;SDS011;65038;53.200;6.530;2023-02-28T12:32:56;7.80;;;3.60;;
76236;SDS011;65038;53.200;6.530;2023-02-28T12:35:28;6.05;;;3.67;;
76236;SDS011;65038;53.200;6.530;2023-02-28T12:38:12;6.40;;;3.60;;
76236;SDS011;65038;53.200;6.530;2023-02-28T12:40:53;6.47;;;3.30;;
76236;SDS011;65038;53.200;6.530;2023-02-28T12:43:20;6.03;;;3.55;;
76236;SDS011;65038;53.200;6.530;2023-02-28T12:45:50;5.88;;;3.50;;
76236;SDS011;65038;53.200;6.530;2023-02-28T12:48:20;5.93;;;3.58;;
76236;SDS011;65038;53.200;6.530;2023-02-28T12:50:47;7.03;;;3.88;;
76236;SDS011;65038;53.200;6.530;2023-02-28T13:00:52;6.75;;;3.80;;
76236;SDS011;65038;53.200;6.530;2023-02-28T13:16:26;6.05;;;3.65;;
76236;SDS011;65038;53.200;6.530;2023-02-28T13:18:52;6.78;;;4.20;;
76236;SDS011;65038;53.200;6.530;2023-02-28T13:21:35;6.95;;;3.70;;
76236;SDS011;65038;53.200;6.530;2023-02-28T13:24:07;7.53;;;4.30;;
76236;SDS011;65038;53.200;6.530;2023-02-28T13:34:38;8.15;;;3.72;;
76236;SDS011;65038;53.200;6.530;2023-02-28T13:47:32;5.70;;;4.03;;
76236;SDS011;65038;53.200;6.530;2023-02-28T13:52:48;7.50;;;4.38;;
76236;SDS011;65038;53.200;6.530;2023-02-28T13:55:20;7.32;;;3.90;;
76236;SDS011;65038;53.200;6.530;2023-02-28T14:05:34;7.18;;;4.20;;
76236;SDS011;65038;53.200;6.530;2023-02-28T14:08:08;8.52;;;4.72;;
76236;SDS011;65038;53.200;6.530;2023-02-28T14:10:42;7.47;;;4.07;;
76236;SDS011;65038;53.200;6.530;2023-02-28T14:15:47;7.25;;;4.00;;
76236;SDS011;65038;53.200;6.530;2023-02-28T14:20:39;7.90;;;4.05;;
76236;SDS011;65038;53.200;6.530;2023-02-28T14:23:11;6.65;;;4.07;;
76236;SDS011;65038;53.200;6.530;2023-02-28T14:36:26;6.45;;;4.30;;
76236;SDS011;65038;53.200;6.530;2023-02-28T14:38:53;6.70;;;4.50;;
76236;SDS011;65038;53.200;6.530;2023-02-28T14:41:29;8.13;;;4.70;;
76236;SDS011;65038;53.200;6.530;2023-02-28T14:43:56;8.30;;;4.50;;
76236;SDS011;65038;53.200;6.530;2023-02-28T14:46:23;8.25;;;4.72;;
76236;SDS011;65038;53.200;6.530;2023-02-28T14:48:50;8.25;;;4.78;;
76236;SDS011;65038;53.200;6.530;2023-02-28T14:51:20;6.55;;;4.20;;
76236;SDS011;65038;53.200;6.530;2023-02-28T14:53:51;6.95;;;4.20;;
76236;SDS011;65038;53.200;6.530;2023-02-28T14:56:22;8.93;;;4.70;;
76236;SDS011;65038;53.200;6.530;2023-02-28T14:58:52;6.65;;;4.53;;
76236;SDS011;65038;53.200;6.530;2023-02-28T15:01:19;7.57;;;4.30;;
76236;SDS011;65038;53.200;6.530;2023-02-28T15:03:47;6.22;;;4.13;;
76236;SDS011;65038;53.200;6.530;2023-02-28T15:06:14;6.63;;;4.40;;
76236;SDS011;65038;53.200;6.530;2023-02-28T15:08:42;7.10;;;4.60;;
76236;SDS011;65038;53.200;6.530;2023-02-28T15:11:18;6.88;;;4.40;;
76236;SDS011;65038;53.200;6.530;2023-02-28T15:13:48;8.23;;;4.65;;
76236;SDS011;65038;53.200;6.530;2023-02-28T15:21:23;7.00;;;4.85;;
76236;SDS011;65038;53.200;6.530;2023-02-28T15:26:22;9.48;;;5.22;;
76236;SDS011;65038;53.200;6.530;2023-02-28T15:28:51;7.47;;;5.18;;
76236;SDS011;65038;53.200;6.530;2023-02-28T15:31:20;6.90;;;4.85;;
76236;SDS011;65038;53.200;6.530;2023-02-28T15:33:54;7.95;;;5.55;;
76236;SDS011;65038;53.200;6.530;2023-02-28T15:36:21;9.32;;;5.63;;
76236;SDS011;65038;53.200;6.530;2023-02-28T15:38:50;10.05;;;5.47;;
76236;SDS011;65038;53.200;6.530;2023-02-28T15:41:37;8.02;;;5.18;;
76236;SDS011;65038;53.200;6.530;2023-02-28T15:47:01;7.68;;;4.50;;
76236;SDS011;65038;53.200;6.530;2023-02-28T15:49:28;8.48;;;5.22;;
76236;SDS011;65038;53.200;6.530;2023-02-28T15:51:56;7.65;;;4.90;;
76236;SDS011;65038;53.200;6.530;2023-02-28T15:54:24;7.80;;;4.28;;
76236;SDS011;65038;53.200;6.530;2023-02-28T15:56:53;7.70;;;4.72;;
76236;SDS011;65038;53.200;6.530;2023-02-28T15:59:22;7.70;;;4.43;;
76236;SDS011;65038;53.200;6.530;2023-02-28T16:02:01;8.85;;;5.00;;
76236;SDS011;65038;53.200;6.530;2023-02-28T16:04:28;9.75;;;5.63;;
76236;SDS011;65038;53.200;6.530;2023-02-28T16:09:25;7.75;;;5.07;;
76236;SDS011;65038;53.200;6.530;2023-02-28T16:11:53;8.13;;;5.20;;
76236;SDS011;65038;53.200;6.530;2023-02-28T16:14:20;8.60;;;5.38;;
76236;SDS011;65038;53.200;6.530;2023-02-28T16:16:52;8.80;;;5.32;;
76236;SDS011;65038;53.200;6.530;2023-02-28T16:19:19;7.70;;;5.00;;
76236;SDS011;65038;53.200;6.530;2023-02-28T16:21:45;8.27;;;5.32;;
76236;SDS011;65038;53.200;6.530;2023-02-28T16:24:11;8.32;;;5.50;;
76236;SDS011;65038;53.200;6.530;2023-02-28T16:26:39;7.95;;;5.60;;
76236;SDS011;65038;53.200;6.530;2023-02-28T16:29:05;8.60;;;5.65;;
76236;SDS011;65038;53.200;6.530;2023-02-28T16:31:33;9.77;;;5.95;;
76236;SDS011;65038;53.200;6.530;2023-02-28T16:34:01;9.30;;;5.97;;
76236;SDS011;65038;53.200;6.530;2023-02-28T16:36:27;11.13;;;6.07;;
76236;SDS011;65038;53.200;6.530;2023-02-28T16:38:53;11.57;;;6.07;;
76236;SDS011;65038;53.200;6.530;2023-02-28T16:41:24;9.18;;;5.93;;
76236;SDS011;65038;53.200;6.530;2023-02-28T16:43:52;9.00;;;5.57;;
76236;SDS011;65038;53.200;6.530;2023-02-28T16:46:19;10.45;;;5.95;;
76236;SDS011;65038;53.200;6.530;2023-02-28T16:48:46;8.93;;;5.80;;
76236;SDS011;65038;53.200;6.530;2023-02-28T16:51:16;10.57;;;5.95;;
76236;SDS011;65038;53.200;6.530;2023-02-28T16:53:42;10.32;;;5.90;;
76236;SDS011;65038;53.200;6.530;2023-02-28T16:56:16;9.85;;;5.80;;
76236;SDS011;65038;53.200;6.530;2023-02-28T16:58:42;8.57;;;5.70;;
76236;SDS011;65038;53.200;6.530;2023-02-28T17:01:09;10.05;;;5.80;;
76236;SDS011;65038;53.200;6.530;2023-02-28T17:03:35;8.65;;;5.18;;
76236;SDS011;65038;53.200;6.530;2023-02-28T17:06:02;8.63;;;5.95;;
76236;SDS011;65038;53.200;6.530;2023-02-28T17:08:28;9.10;;;5.88;;
76236;SDS011;65038;53.200;6.530;2023-02-28T17:10:55;10.30;;;6.03;;
76236;SDS011;65038;53.200;6.530;2023-02-28T17:13:21;8.40;;;6.03;;
76236;SDS011;65038;53.200;6.530;2023-02-28T17:15:47;10.25;;;6.47;;
76236;SDS011;65038;53.200;6.530;2023-02-28T17:18:17;10.73;;;6.28;;
76236;SDS011;65038;53.200;6.530;2023-02-28T17:20:44;10.43;;;6.28;;
76236;SDS011;65038;53.200;6.530;2023-02-28T17:23:10;10.02;;;6.32;;